Antholz Obertal
06.09.2026, 06:45















57 Stazions meteo
| Favoric | Stazion | Autëza | Data - ëura |
t (°C) |
N (mm) |
ff (km/h) |
bb (km/h) |
dd |
rH (%) |
p (hPa) |
sd (h) |
EG (W/m²) |
|---|---|---|---|---|---|---|---|---|---|---|---|---|
| Antholz Obertal | 1327 m | 06.09.2026, 06:45 | 10.2 | 0.0 | 11.5 | 15.1 | NO(54.7°) | 82 | 1026.7 | 00:00 | 0 | |
| Auer | 254 m | 06.09.2026, 06:45 | 18.4 | 0.0 | - | - | - | 69 | 1022.9 | 00:00 | 0 | |
| Barbian Kollmann | 463 m | 06.09.2026, 06:45 | 15.3 | 0.0 | 9.4 | 14.4 | N(17.4°) | 79 | 1024.4 | 00:00 | 1 | |
| Branzoll | 227 m | 06.09.2026, 06:45 | 17.9 | 0.0 | 4.0 | 7.6 | O(73°) | 73 | 1022.6 | 00:00 | 1 | |
| Bulsan | 245 m | 06.09.2026, 06:45 | 20.0 | 0.0 | 4.3 | 14.0 | NO(58.1°) | 54 | 1022.3 | 00:00 | 0 | |
| Burnech | 831 m | 06.09.2026, 06:45 | 8.9 | 0.0 | 2.2 | 4.0 | NO(65.5°) | 96 | 1027.8 | 00:00 | 2 | |
| Corvara | 1530 m | 06.09.2026, 06:45 | 8.0 | 0.0 | 2.5 | 5.8 | S(195.1°) | 91 | 1027.1 | 00:00 | 0 | |
| Deutschnofen | 1470 m | 06.09.2026, 06:45 | 13.2 | 0.0 | 11.2 | 13.7 | N(343°) | 69 | 1022.8 | 00:00 | 0 | |
| Franzensfeste Grasstein | 833 m | 06.09.2026, 06:45 | 14.2 | 0.0 | 22.3 | 30.2 | SV(240°) | 78 | 1023.8 | - | - | |
| Gargazon | 253 m | 06.09.2026, 06:45 | 12.6 | 0.0 | 1.8 | 5.0 | NO(29.6°) | 100 | 1024.1 | 00:00 | 0 | |
| Hintermartell | 1714 m | 06.09.2026, 06:45 | 9.8 | 0.0 | 7.9 | 13.7 | S(201.3°) | 67 | 1029.3 | 00:00 | 0 | |
| Jenesien | 972 m | 06.09.2026, 06:45 | 12.3 | 0.0 | 1.4 | 4.7 | NW(300.7°) | 90 | 1025.0 | 00:00 | 0 | |
| Jouf de Ciarej | 1713 m | 06.09.2026, 06:45 | 11.6 | 0.0 | 7.6 | 10.1 | NO(47.8°) | 62 | 1023.9 | 00:00 | 1 | |
| Kaltern Oberplanitzing | 492 m | 06.09.2026, 06:45 | 19.1 | 0.0 | 6.5 | 10.8 | NW(333.9°) | 57 | 1023.6 | 00:00 | 0 | |
| Laas Eyrs | 874 m | 06.09.2026, 06:45 | 15.9 | 0.0 | 7.9 | 17.6 | V(258°) | 60 | 1024.1 | 00:00 | 0 | |
| Laimburg | 224 m | 06.09.2026, 06:45 | 14.6 | 0.0 | 2.5 | 6.5 | NW(292.7°) | 89 | 1025.0 | 00:00 | 1 | |
| Langtaufers Grub | 1844 m | 06.09.2026, 06:45 | 5.9 | 0.0 | 7.2 | 12.6 | NO(43.8°) | 85 | 1029.2 | 00:00 | 0 | |
| Maran | 333 m | 06.09.2026, 06:45 | 15.9 | 0.0 | 0.4 | 2.5 | S(193°) | 83 | 1023.6 | 00:00 | 1 | |
| Marienberg | 1312 m | 06.09.2026, 06:45 | 14.2 | 0.0 | - | - | - | 57 | 1024.1 | 00:00 | 0 | |
| Mühlwald | 1140 m | 06.09.2026, 06:45 | 9.1 | 0.0 | - | - | - | 99 | 1028.1 | - | - | |
| Naturns | 537 m | 06.09.2026, 06:45 | 11.2 | 0.0 | 0.7 | 4.7 | SV(233.7°) | 100 | 1026.1 | 00:00 | 0 | |
| Obervintl | 747 m | 06.09.2026, 06:45 | 9.6 | 0.0 | 3.2 | 4.3 | O(108.3°) | 100 | 1027.7 | 00:00 | 0 | |
| Pens | 1452 m | 06.09.2026, 06:45 | 7.0 | 0.0 | - | - | - | 100 | 1028.6 | - | - | |
| Persenon | 585 m | 06.09.2026, 06:45 | 13.4 | 0.0 | 2.2 | 4.0 | NO(27.4°) | 97 | 1025.0 | 00:00 | 1 | |
| Pfelders | 1622 m | 06.09.2026, 06:45 | 6.5 | 0.0 | 6.8 | 9.7 | SV(232.2°) | 90 | 1028.6 | 00:00 | 1 | |
| Pfitsch St. Jakob | 1438 m | 06.09.2026, 06:45 | 4.7 | 0.0 | 1.1 | 3.6 | O(84.1°) | 100 | 1030.4 | 00:00 | 0 | |
| Pflersch | 1152 m | 06.09.2026, 06:45 | 9.5 | 0.0 | 3.2 | 5.8 | NW(301°) | 97 | 1027.3 | 00:00 | 0 | |
| Pfunders | 1169 m | 06.09.2026, 06:45 | 12.1 | 0.0 | 1.8 | 6.5 | SV(228.9°) | 73 | 1024.3 | 00:00 | 0 | |
| Platt in Passeier | 1143 m | 06.09.2026, 06:45 | 13.6 | 0.0 | 4.3 | 7.6 | S(198.2°) | 65 | 1024.6 | 00:00 | 0 | |
| Prettau | 1448 m | 06.09.2026, 06:45 | 7.8 | 0.0 | 1.1 | 6.1 | NO(38.7°) | 99 | 1027.7 | 00:00 | 2 | |
| Radein | 1550 m | 06.09.2026, 06:45 | 12.7 | 0.0 | 1.1 | 2.9 | SV(224.5°) | 58 | 1024.6 | 00:00 | 0 | |
| Rein in Taufers | 1562 m | 06.09.2026, 06:45 | 7.4 | 0.0 | 2.5 | 6.8 | SO(130.3°) | 98 | 1027.7 | 00:00 | 0 | |
| Ridnaun | 1365 m | 06.09.2026, 06:45 | 10.5 | 0.0 | - | - | - | 89 | 1029.9 | - | - | |
| Ritten Siffian | 989 m | 06.09.2026, 06:45 | 14.4 | 0.0 | 3.2 | 7.2 | N(8.9°) | 67 | 1024.1 | 00:00 | 1 | |
| S. Martin de Tor | 1151 m | 06.09.2026, 06:45 | 7.7 | 0.0 | 1.8 | 3.6 | SO(130.6°) | 94 | 1031.2 | 00:00 | 0 | |
| Salurn | 214 m | 06.09.2026, 06:45 | 22.6 | 0.0 | 16.6 | 24.8 | O(108.7°) | 47 | 1022.9 | 00:00 | 0 | |
| Sand i.T. Mühlen | 850 m | 06.09.2026, 06:45 | 9.1 | 0.0 | 3.2 | 4.7 | SV(208.3°) | 100 | 1027.8 | 00:00 | 0 | |
| Sarnthein | 970 m | 06.09.2026, 06:45 | 15.2 | 0.0 | 17.3 | 27.0 | N(354.3°) | 66 | 1024.3 | 00:00 | 0 | |
| Schnals Vernagt | 1697 m | 06.09.2026, 06:45 | 9.6 | 0.0 | - | - | - | 65 | 1027.6 | - | - | |
| Sëlva | 1594 m | 06.09.2026, 06:45 | 9.7 | 0.0 | - | - | - | 74 | 1026.3 | - | - | |
| Sexten | 1322 m | 06.09.2026, 06:45 | 5.4 | 0.0 | 3.6 | 5.8 | SO(127.2°) | 100 | 1027.6 | 00:00 | 0 | |
| St. Magdalena in Gsies | 1414 m | 06.09.2026, 06:45 | 7.5 | 0.0 | 20.5 | 21.6 | N(19.4°) | 92 | 1032.3 | 00:00 | 1 | |
| St. Martin in Passeier | 588 m | 06.09.2026, 06:45 | 13.6 | 0.0 | 2.5 | 4.7 | N(21.7°) | 88 | 1025.6 | 00:00 | 1 | |
| St. Valentin a.d. Haide | 1500 m | 06.09.2026, 06:45 | 10.8 | 0.0 | 18.0 | 25.6 | N(349.9°) | 100 | 1025.8 | 00:00 | 0 | |
| St. Veit in Prags | 1350 m | 06.09.2026, 06:45 | 8.1 | 0.0 | - | - | - | 99 | 1029.8 | - | - | |
| St. Walburg | 1142 m | 06.09.2026, 06:45 | 13.9 | 0.0 | 6.8 | 11.9 | SV(243°) | 72 | 1024.6 | 00:00 | 0 | |
| Sterzing | 939 m | 06.09.2026, 06:45 | 9.3 | 0.0 | 3.2 | 7.2 | NW(303.9°) | 100 | 1028.7 | 00:00 | 0 | |
| Sulaneres | 698 m | 06.09.2026, 06:45 | 17.7 | 0.0 | 17.3 | 24.8 | SV(245.9°) | 65 | 1023.8 | 00:00 | 0 | |
| Sulden | 1902 m | 06.09.2026, 06:45 | 8.0 | 0.0 | - | - | - | 79 | 1026.7 | 00:00 | 0 | |
| Terenten | 1350 m | 06.09.2026, 06:45 | 12.4 | 0.0 | 2.9 | 4.7 | NW(293.6°) | 64 | 1025.0 | 00:00 | 0 | |
| Toblach | 1218 m | 06.09.2026, 06:45 | 7.7 | 0.0 | 4.3 | 5.4 | O(97.6°) | 95 | 1029.0 | 00:00 | 2 | |
| Ulten Weißbrunn | 1883 m | 06.09.2026, 06:45 | 10.9 | 0.0 | - | - | - | 54 | 1024.8 | 00:00 | 0 | |
| Vals | 1409 m | 06.09.2026, 06:45 | 11.4 | 0.0 | 1.8 | 3.6 | NO(58.3°) | 68 | 1026.7 | 00:00 | 0 | |
| Valsperch | 1129 m | 06.09.2026, 06:45 | 6.9 | 0.0 | 4.0 | 6.5 | O(103.9°) | 100 | 1029.1 | 00:00 | 1 | |
| Villnöss | 1327 m | 06.09.2026, 06:45 | 12.3 | 0.0 | 2.5 | 7.6 | N(8°) | 70 | 1024.9 | 00:00 | 0 | |
| Völs am Schlern | 840 m | 06.09.2026, 06:45 | 16.2 | 0.0 | 1.8 | 7.6 | NO(59.5°) | 64 | 1026.9 | 00:00 | 0 | |
| Welschnofen | 1126 m | 06.09.2026, 06:45 | 11.8 | 0.0 | - | - | - | 79 | 1026.4 | 00:00 | 1 |
Lijënda di dac muserei:
t:Temperatura dl'aria (°C)
N:Prezipitazions do mesanuet (mm)
ff:Slune mesan dl vënt (km/h)
bb:Majer slune dl vënt (km/h)
dd:Direzion dl vënt
rH:Tume relatif (%)
p:Prescion dl'aria (hPa)
sd:Dureda dl surëdl (h)
EG:Raiazion dl surëdl (W/m²)